createdAt,value
2022-10-13T00:00:31.443Z,101409.47
2022-10-13T00:03:02.375Z,101423.94
2022-10-13T00:05:30.242Z,101411.13
2022-10-13T00:07:57.529Z,101405.59
2022-10-13T00:10:25.570Z,101412.94
2022-10-13T00:12:52.577Z,101421.75
2022-10-13T00:15:19.921Z,101423.59
2022-10-13T00:17:46.813Z,101407.72
2022-10-13T00:20:13.630Z,101400.81
2022-10-13T00:22:40.238Z,101420.19
2022-10-13T00:25:07.375Z,101431.66
2022-10-13T00:27:34.093Z,101436.97
2022-10-13T00:30:00.769Z,101439.78
2022-10-13T00:32:27.527Z,101435.31
2022-10-13T00:34:54.219Z,101444.34
2022-10-13T00:37:20.928Z,101458.41
2022-10-13T00:39:47.634Z,101456.47
2022-10-13T00:42:14.829Z,101465.00
2022-10-13T00:45:01.596Z,101474.88
2022-10-13T00:47:37.009Z,101474.44
2022-10-13T00:50:05.058Z,101469.59
2022-10-13T00:52:33.600Z,101474.13
2022-10-13T00:55:03.177Z,101469.78
2022-10-13T00:57:30.239Z,101480.13
2022-10-13T00:59:57.674Z,101481.53
2022-10-13T01:02:31.778Z,101473.53
2022-10-13T01:04:59.232Z,101476.22
2022-10-13T01:07:26.143Z,101477.97
2022-10-13T01:09:53.063Z,101466.84
2022-10-13T01:12:43.557Z,101457.34
2022-10-13T01:15:34.181Z,101460.16
2022-10-13T01:18:27.034Z,101454.19
2022-10-13T01:21:10.095Z,101446.50
2022-10-13T01:24:03.867Z,101445.94
2022-10-13T01:26:59.570Z,101448.41
2022-10-13T01:29:51.198Z,101436.00
2022-10-13T01:32:37.793Z,101433.75
2022-10-13T01:35:14.253Z,101424.03
2022-10-13T01:37:53.018Z,101418.03
2022-10-13T01:40:29.062Z,101424.94
2022-10-13T01:43:10.651Z,101427.97
2022-10-13T01:45:42.587Z,101434.59
2022-10-13T01:48:10.674Z,101427.00
2022-10-13T01:50:39.305Z,101430.22
2022-10-13T01:53:07.333Z,101427.25
2022-10-13T01:55:34.234Z,101422.16
2022-10-13T01:58:00.972Z,101421.97
2022-10-13T02:00:34.387Z,101420.00
2022-10-13T02:03:09.617Z,101412.78
2022-10-13T02:05:51.277Z,101415.22
2022-10-13T02:08:37.548Z,101414.09
2022-10-13T02:11:07.011Z,101409.44
2022-10-13T02:13:36.808Z,101409.59
2022-10-13T02:16:03.605Z,101406.44
2022-10-13T02:18:35.925Z,101410.06
2022-10-13T02:21:04.063Z,101409.44
2022-10-13T02:23:31.617Z,101413.44
2022-10-13T02:26:00.256Z,101411.06
2022-10-13T02:28:27.735Z,101404.69
2022-10-13T02:30:54.471Z,101410.44
2022-10-13T02:33:21.078Z,101410.69
2022-10-13T02:35:47.886Z,101408.03
2022-10-13T02:38:14.653Z,101395.88
2022-10-13T02:40:41.401Z,101395.94
2022-10-13T02:43:08.008Z,101392.75
2022-10-13T02:45:34.702Z,101380.03
2022-10-13T02:48:01.525Z,101373.44
2022-10-13T02:50:31.990Z,101365.00
2022-10-13T02:52:58.928Z,101369.22
2022-10-13T02:55:25.636Z,101358.81
2022-10-13T02:57:52.327Z,101359.59
2022-10-13T03:00:19.931Z,101359.28
2022-10-13T03:02:46.608Z,101357.28
2022-10-13T03:05:13.590Z,101352.66
2022-10-13T03:07:41.821Z,101345.03
2022-10-13T03:10:08.766Z,101340.19
2022-10-13T03:12:35.483Z,101328.94
2022-10-13T03:15:02.103Z,101326.56
2022-10-13T03:17:29.219Z,101322.91
2022-10-13T03:19:55.923Z,101305.91
2022-10-13T03:22:23.056Z,101307.81
2022-10-13T03:24:49.959Z,101304.16
2022-10-13T03:27:16.672Z,101291.72
2022-10-13T03:29:43.284Z,101289.81
2022-10-13T03:32:10.127Z,101284.50
2022-10-13T03:34:36.777Z,101279.72
2022-10-13T03:37:04.294Z,101278.56
2022-10-13T03:39:30.976Z,101281.78
2022-10-13T03:41:57.655Z,101289.47
2022-10-13T03:44:24.453Z,101280.16
2022-10-13T03:46:51.846Z,101267.50
2022-10-13T03:49:19.490Z,101263.53
2022-10-13T03:51:46.579Z,101265.47
2022-10-13T03:54:14.585Z,101272.00
2022-10-13T03:56:42.339Z,101277.34
2022-10-13T03:59:12.615Z,101271.84
2022-10-13T04:01:39.858Z,101279.00
2022-10-13T04:04:07.904Z,101261.97
2022-10-13T04:06:34.656Z,101268.97
2022-10-13T04:09:01.316Z,101267.47
2022-10-13T04:11:28.249Z,101258.41
2022-10-13T04:13:56.894Z,101254.38
2022-10-13T04:16:27.125Z,101266.00
2022-10-13T04:18:57.466Z,101266.34
2022-10-13T04:21:24.873Z,101252.44
2022-10-13T04:23:51.604Z,101253.16
2022-10-13T04:26:21.944Z,101254.91
2022-10-13T04:28:50.112Z,101250.53
2022-10-13T04:31:17.017Z,101265.13
2022-10-13T04:33:44.520Z,101246.09
2022-10-13T04:36:13.232Z,101245.22
2022-10-13T04:38:40.329Z,101242.34
2022-10-13T04:41:07.933Z,101237.28
2022-10-13T04:43:35.403Z,101236.94
2022-10-13T04:46:13.872Z,101230.38
2022-10-13T04:48:40.757Z,101237.19
2022-10-13T04:51:10.766Z,101240.31
2022-10-13T04:53:37.979Z,101235.59
2022-10-13T04:56:08.473Z,101223.47
2022-10-13T04:58:36.610Z,101228.44
2022-10-13T05:01:05.735Z,101219.38
2022-10-13T05:03:33.337Z,101222.16
2022-10-13T05:06:00.145Z,101226.53
2022-10-13T05:08:26.834Z,101226.00
2022-10-13T05:10:58.030Z,101214.13
2022-10-13T05:13:26.075Z,101218.84
2022-10-13T05:15:52.790Z,101214.91
2022-10-13T05:18:20.162Z,101221.47
2022-10-13T05:20:47.254Z,101232.63
2022-10-13T05:23:14.891Z,101229.69
2022-10-13T05:25:41.843Z,101220.50
2022-10-13T05:28:09.695Z,101217.00
2022-10-13T05:30:36.359Z,101211.00
2022-10-13T05:33:03.409Z,101208.91
2022-10-13T05:35:30.164Z,101203.66
2022-10-13T05:37:56.816Z,101199.53
2022-10-13T05:40:23.541Z,101192.38
2022-10-13T05:42:51.426Z,101198.56
2022-10-13T05:45:19.647Z,101190.13
2022-10-13T05:47:46.315Z,101191.22
2022-10-13T05:50:13.212Z,101187.03
2022-10-13T05:52:41.824Z,101187.91
2022-10-13T05:55:11.298Z,101197.28
2022-10-13T05:57:42.063Z,101191.56
2022-10-13T06:00:12.822Z,101186.88
2022-10-13T06:02:47.268Z,101180.72
2022-10-13T06:05:18.285Z,101176.81
2022-10-13T06:07:46.264Z,101179.44
2022-10-13T06:10:13.312Z,101174.47
2022-10-13T06:12:39.970Z,101175.44
2022-10-13T06:15:07.359Z,101168.56
2022-10-13T06:17:38.139Z,101157.78
2022-10-13T06:20:06.733Z,101159.59
2022-10-13T06:22:34.703Z,101159.22
2022-10-13T06:25:02.060Z,101161.41
2022-10-13T06:27:28.945Z,101160.06
2022-10-13T06:29:55.893Z,101152.69
2022-10-13T06:32:24.865Z,101151.25
2022-10-13T06:34:51.640Z,101149.00
2022-10-13T06:37:19.637Z,101144.81
2022-10-13T06:39:48.873Z,101144.44
2022-10-13T06:42:16.360Z,101147.84
2022-10-13T06:44:43.088Z,101144.25
2022-10-13T06:47:09.788Z,101148.97
2022-10-13T06:49:40.213Z,101152.03
2022-10-13T06:52:06.930Z,101150.78
2022-10-13T06:54:33.674Z,101140.72
2022-10-13T06:57:00.531Z,101137.34
2022-10-13T06:59:27.873Z,101145.09
2022-10-13T07:01:54.630Z,101137.72
2022-10-13T07:04:21.395Z,101143.94
2022-10-13T07:06:51.669Z,101147.41
2022-10-13T07:09:20.061Z,101142.09
2022-10-13T07:11:47.747Z,101152.44
2022-10-13T07:14:14.436Z,101151.88
2022-10-13T07:16:41.634Z,101152.56
2022-10-13T07:19:08.285Z,101153.63
2022-10-13T07:21:34.996Z,101143.94
2022-10-13T07:24:02.788Z,101148.91
2022-10-13T07:26:29.712Z,101155.56
2022-10-13T07:28:56.445Z,101150.81
2022-10-13T07:31:23.190Z,101147.28
2022-10-13T07:33:51.417Z,101152.47
2022-10-13T07:36:19.124Z,101157.16
2022-10-13T07:38:46.749Z,101169.09
2022-10-13T07:41:14.400Z,101183.00
2022-10-13T07:43:41.500Z,101190.50
2022-10-13T07:46:10.209Z,101194.31
2022-10-13T07:48:37.001Z,101201.72
2022-10-13T07:51:09.128Z,101217.91
2022-10-13T07:53:36.076Z,101219.78
2022-10-13T07:56:05.023Z,101221.22
2022-10-13T07:58:31.936Z,101226.81
2022-10-13T08:01:00.514Z,101221.38
2022-10-13T08:03:27.999Z,101235.31
2022-10-13T08:05:55.644Z,101231.41
2022-10-13T08:08:22.519Z,101246.34
2022-10-13T08:10:49.236Z,101241.47
2022-10-13T08:13:15.996Z,101251.91
2022-10-13T08:15:44.231Z,101250.88
2022-10-13T08:18:13.059Z,101252.75
2022-10-13T08:20:43.817Z,101262.44
2022-10-13T08:23:11.957Z,101274.34
2022-10-13T08:25:40.515Z,101263.72
2022-10-13T08:28:15.743Z,101280.06
2022-10-13T08:30:42.482Z,101298.41
2022-10-13T08:33:09.262Z,101299.94
2022-10-13T08:35:35.888Z,101299.00
2022-10-13T08:38:02.518Z,101302.81
2022-10-13T08:40:29.217Z,101309.88
2022-10-13T08:43:00.213Z,101311.97
2022-10-13T08:45:45.929Z,101314.00
2022-10-13T08:48:15.892Z,101328.41
2022-10-13T08:50:46.587Z,101329.28
2022-10-13T08:53:33.279Z,101327.84
2022-10-13T08:56:15.181Z,101335.63
2022-10-13T08:58:43.177Z,101346.72
2022-10-13T09:01:25.113Z,101353.13
2022-10-13T09:04:13.863Z,101358.56
2022-10-13T09:06:58.780Z,101349.34
2022-10-13T09:09:25.438Z,101346.81
2022-10-13T09:11:52.266Z,101352.16
2022-10-13T09:14:27.389Z,101349.72
2022-10-13T09:16:57.180Z,101346.41
2022-10-13T09:19:25.659Z,101349.13
2022-10-13T09:21:55.887Z,101347.63
2022-10-13T09:24:25.476Z,101353.59
2022-10-13T09:27:11.473Z,101352.81
2022-10-13T09:29:38.413Z,101365.03
2022-10-13T09:32:19.711Z,101368.50
2022-10-13T09:34:47.013Z,101361.88
2022-10-13T09:37:31.913Z,101367.53
2022-10-13T09:40:11.894Z,101375.50
2022-10-13T09:42:38.775Z,101378.09
2022-10-13T09:45:15.366Z,101380.28
2022-10-13T09:47:52.085Z,101392.59
2022-10-13T09:50:23.272Z,101394.03
2022-10-13T09:52:50.656Z,101397.59
2022-10-13T09:55:32.220Z,101401.13
2022-10-13T09:58:21.916Z,101396.41
2022-10-13T10:00:51.284Z,101397.22
2022-10-13T10:03:23.794Z,101390.31
2022-10-13T10:05:56.434Z,101383.69
2022-10-13T10:09:01.406Z,101376.47
2022-10-13T10:11:39.708Z,101385.31
2022-10-13T10:14:27.112Z,101389.66
2022-10-13T10:17:23.623Z,101387.28
2022-10-13T10:20:11.921Z,101383.56
2022-10-13T10:22:47.611Z,101376.59
2022-10-13T10:25:29.972Z,101386.00
2022-10-13T10:28:14.893Z,101381.94
2022-10-13T10:30:54.035Z,101389.34
2022-10-13T10:33:30.358Z,101386.41
2022-10-13T10:36:16.830Z,101382.38
2022-10-13T10:38:50.824Z,101388.13
2022-10-13T10:41:47.557Z,101390.41
2022-10-13T10:44:23.764Z,101377.31
2022-10-13T10:46:51.707Z,101375.47
2022-10-13T10:49:46.054Z,101365.25
2022-10-13T10:52:23.464Z,101362.16
2022-10-13T10:54:56.933Z,101358.41
2022-10-13T10:57:35.567Z,101357.50
2022-10-13T11:00:07.131Z,101349.78
2022-10-13T11:03:00.680Z,101358.63
2022-10-13T11:06:04.811Z,101354.78
2022-10-13T11:08:48.759Z,101352.81
2022-10-13T11:11:33.411Z,101343.38
2022-10-13T11:14:06.215Z,101346.88
2022-10-13T11:16:40.820Z,101352.59
2022-10-13T11:19:30.733Z,101355.72
2022-10-13T11:21:57.759Z,101346.63
2022-10-13T11:24:33.567Z,101335.09
2022-10-13T11:27:09.425Z,101331.72
2022-10-13T11:29:54.909Z,101321.56
2022-10-13T11:32:27.792Z,101321.81
2022-10-13T11:35:04.678Z,101324.88
2022-10-13T11:38:13.917Z,101313.66
2022-10-13T11:41:05.306Z,101308.63
2022-10-13T11:43:48.825Z,101309.78
2022-10-13T11:46:31.357Z,101297.41
2022-10-13T11:49:33.387Z,101304.00
2022-10-13T11:52:27.310Z,101300.47
2022-10-13T11:55:01.591Z,101304.75
2022-10-13T11:57:29.300Z,101296.59
2022-10-13T11:59:56.948Z,101292.78
2022-10-13T12:02:26.586Z,101291.22
2022-10-13T12:05:02.152Z,101287.50
2022-10-13T12:07:34.847Z,101295.22
2022-10-13T12:10:05.820Z,101293.28
2022-10-13T12:12:32.835Z,101313.59
2022-10-13T12:15:02.642Z,101316.81
2022-10-13T12:17:38.891Z,101320.59
2022-10-13T12:20:23.551Z,101317.19
2022-10-13T12:22:51.770Z,101319.19
2022-10-13T12:25:21.322Z,101313.09
2022-10-13T12:27:50.936Z,101327.03
2022-10-13T12:30:32.076Z,101330.97
2022-10-13T12:33:00.874Z,101334.25
2022-10-13T12:35:33.120Z,101340.97
2022-10-13T12:38:07.838Z,101337.59
2022-10-13T12:40:35.131Z,101348.38
2022-10-13T12:43:04.480Z,101341.88
2022-10-13T12:45:33.650Z,101341.81
2022-10-13T12:48:00.529Z,101337.50
2022-10-13T12:50:30.200Z,101333.72
2022-10-13T12:53:04.605Z,101335.78
2022-10-13T12:55:32.874Z,101339.81
2022-10-13T12:57:59.773Z,101337.97
2022-10-13T13:00:29.348Z,101348.16
2022-10-13T13:02:58.767Z,101346.53
2022-10-13T13:05:36.162Z,101341.00
2022-10-13T13:08:05.617Z,101346.56
2022-10-13T13:10:32.341Z,101341.28
2022-10-13T13:13:14.325Z,101332.59
2022-10-13T13:15:41.578Z,101340.41
2022-10-13T13:18:26.537Z,101342.91
2022-10-13T13:20:54.568Z,101335.84
2022-10-13T13:23:22.239Z,101334.19
2022-10-13T13:26:20.058Z,101331.22
2022-10-13T13:28:48.975Z,101324.81
2022-10-13T13:31:17.860Z,101322.44
2022-10-13T13:33:44.549Z,101332.59
2022-10-13T13:36:20.821Z,101325.31
2022-10-13T13:38:48.670Z,101316.06
2022-10-13T13:41:16.080Z,101308.59
2022-10-13T13:43:43.423Z,101303.47
2022-10-13T13:46:17.492Z,101288.00
2022-10-13T13:48:44.208Z,101285.41
2022-10-13T13:51:10.947Z,101282.97
2022-10-13T13:53:37.805Z,101271.84
2022-10-13T13:56:05.098Z,101272.03
2022-10-13T13:58:31.832Z,101262.84
2022-10-13T14:01:01.605Z,101250.84
2022-10-13T14:03:28.226Z,101235.00
2022-10-13T14:05:54.869Z,101241.91
2022-10-13T14:08:21.530Z,101228.91
2022-10-13T14:10:48.501Z,101225.41
2022-10-13T14:13:15.182Z,101219.16
2022-10-13T14:15:41.913Z,101218.34
2022-10-13T14:18:08.746Z,101215.34
2022-10-13T14:20:35.501Z,101219.50
2022-10-13T14:23:02.181Z,101200.53
2022-10-13T14:25:28.861Z,101189.88
2022-10-13T14:27:55.537Z,101190.84
2022-10-13T14:30:22.179Z,101176.13
2022-10-13T14:32:48.823Z,101166.47
2022-10-13T14:35:15.576Z,101162.81
2022-10-13T14:37:42.208Z,101159.44
2022-10-13T14:40:09.493Z,101135.63
2022-10-13T14:42:36.204Z,101126.19
2022-10-13T14:45:02.987Z,101115.41
2022-10-13T14:47:29.908Z,101108.06
2022-10-13T14:49:56.630Z,101083.66
2022-10-13T14:52:23.395Z,101067.03
2022-10-13T14:54:50.012Z,101052.88
2022-10-13T14:57:16.695Z,101041.59
2022-10-13T14:59:43.516Z,101036.03
2022-10-13T15:02:14.014Z,101028.59
2022-10-13T15:04:40.802Z,101017.66
2022-10-13T15:07:07.705Z,101008.59
2022-10-13T15:09:45.504Z,100988.25
2022-10-13T15:12:19.424Z,100985.78
2022-10-13T15:14:46.242Z,100977.00
2022-10-13T15:17:12.922Z,100964.94
2022-10-13T15:19:39.524Z,100948.22
2022-10-13T15:22:06.138Z,100932.84
2022-10-13T15:24:32.738Z,100929.75
2022-10-13T15:26:59.388Z,100918.59
2022-10-13T15:29:26.001Z,100899.59
2022-10-13T15:31:52.614Z,100902.09
2022-10-13T15:34:19.252Z,100898.63
2022-10-13T15:36:45.936Z,100881.78
2022-10-13T15:39:12.756Z,100862.81
2022-10-13T15:41:39.401Z,100841.75
2022-10-13T15:44:06.016Z,100832.44
2022-10-13T15:46:32.682Z,100819.22
2022-10-13T15:49:00.040Z,100805.03
2022-10-13T15:51:27.113Z,100799.47
2022-10-13T15:53:55.310Z,100793.66
2022-10-13T15:56:22.238Z,100774.94
2022-10-13T15:58:48.933Z,100760.78
2022-10-13T16:01:15.655Z,100752.53
2022-10-13T16:03:42.590Z,100742.91
2022-10-13T16:06:12.334Z,100734.25
2022-10-13T16:08:40.685Z,100728.53
2022-10-13T16:11:12.290Z,100720.03
2022-10-13T16:13:39.699Z,100727.09
2022-10-13T16:16:07.522Z,100705.53
2022-10-13T16:18:36.403Z,100705.81
2022-10-13T16:21:17.289Z,100690.91
2022-10-13T16:23:45.795Z,100689.22
2022-10-13T16:26:12.427Z,100676.56
2022-10-13T16:28:39.194Z,100668.91
2022-10-13T16:31:08.212Z,100648.69
2022-10-13T16:33:35.867Z,100636.44
2022-10-13T16:36:08.442Z,100627.78
2022-10-13T16:38:35.301Z,100612.69
2022-10-13T16:41:06.767Z,100602.63
2022-10-13T16:43:33.995Z,100587.31
2022-10-13T16:46:04.105Z,100623.28
2022-10-13T16:48:32.472Z,100638.81
2022-10-13T16:51:03.959Z,100610.06
2022-10-13T16:53:30.587Z,100591.78
2022-10-13T16:55:57.284Z,100601.53
2022-10-13T16:58:23.929Z,100594.69
2022-10-13T17:00:50.833Z,100589.38
2022-10-13T17:03:17.913Z,100578.72
2022-10-13T17:05:44.550Z,100580.25
2022-10-13T17:08:11.175Z,100575.06
2022-10-13T17:10:38.005Z,100564.47
2022-10-13T17:13:04.746Z,100565.00
2022-10-13T17:15:31.332Z,100555.88
2022-10-13T17:17:57.994Z,100552.94
2022-10-13T17:20:24.667Z,100547.94
2022-10-13T17:22:51.304Z,100543.28
2022-10-13T17:25:17.947Z,100534.13
2022-10-13T17:27:44.599Z,100526.84
2022-10-13T17:30:11.704Z,100530.19
2022-10-13T17:32:39.276Z,100519.75
2022-10-13T17:35:06.721Z,100508.25
2022-10-13T17:37:33.438Z,100500.53
2022-10-13T17:40:00.065Z,100498.88
2022-10-13T17:42:28.868Z,100507.78
2022-10-13T17:44:55.477Z,100488.84
2022-10-13T17:47:25.502Z,100482.13
2022-10-13T17:49:52.136Z,100463.59
2022-10-13T17:52:18.820Z,100457.25
2022-10-13T17:54:45.461Z,100457.72
2022-10-13T17:57:12.109Z,100457.53
2022-10-13T17:59:38.823Z,100457.53
2022-10-13T18:02:05.595Z,100436.44
2022-10-13T18:04:32.270Z,100427.63
2022-10-13T18:06:58.978Z,100429.16
2022-10-13T18:09:27.038Z,100427.91
2022-10-13T18:11:54.894Z,100419.97
2022-10-13T18:14:24.179Z,100425.09
2022-10-13T18:16:52.328Z,100415.47
2022-10-13T18:19:19.913Z,100413.09
2022-10-13T18:21:46.593Z,100412.31
2022-10-13T18:24:13.317Z,100407.75
2022-10-13T18:26:40.957Z,100394.28
2022-10-13T18:29:10.202Z,100398.84
2022-10-13T18:31:38.229Z,100385.78
2022-10-13T18:34:07.841Z,100385.56
2022-10-13T18:36:40.966Z,100377.59
2022-10-13T18:39:13.681Z,100372.09
2022-10-13T18:41:40.898Z,100374.31
2022-10-13T18:44:08.259Z,100364.91
2022-10-13T18:46:36.701Z,100365.84
2022-10-13T18:49:04.590Z,100339.50
2022-10-13T18:51:36.361Z,100337.94
2022-10-13T18:54:04.380Z,100340.94
2022-10-13T18:56:31.719Z,100338.94
2022-10-13T18:59:01.132Z,100365.38
2022-10-13T19:01:30.383Z,100366.53
2022-10-13T19:03:57.853Z,100365.81
2022-10-13T19:06:27.060Z,100357.84
2022-10-13T19:09:05.866Z,100355.28
2022-10-13T19:11:33.179Z,100351.63
2022-10-13T19:14:01.068Z,100359.34
2022-10-13T19:16:30.581Z,100356.81
2022-10-13T19:18:57.736Z,100349.16
2022-10-13T19:21:24.805Z,100355.50
2022-10-13T19:23:51.787Z,100328.41
2022-10-13T19:26:23.714Z,100329.53
2022-10-13T19:28:55.035Z,100321.81
2022-10-13T19:31:23.589Z,100325.91
2022-10-13T19:33:52.475Z,100311.00
2022-10-13T19:36:25.082Z,100320.75
2022-10-13T19:38:52.609Z,100319.13
2022-10-13T19:41:22.043Z,100315.06
2022-10-13T19:43:49.444Z,100324.19
2022-10-13T19:46:17.026Z,100320.19
2022-10-13T19:48:44.776Z,100309.09
2022-10-13T19:51:11.806Z,100313.13
2022-10-13T19:53:39.549Z,100305.81
2022-10-13T19:56:07.400Z,100307.78
2022-10-13T19:58:34.812Z,100311.91
2022-10-13T20:01:06.722Z,100315.91
2022-10-13T20:03:33.612Z,100302.72
2022-10-13T20:06:04.354Z,100309.44
2022-10-13T20:08:31.038Z,100309.34
2022-10-13T20:10:57.788Z,100307.16
2022-10-13T20:13:24.588Z,100299.75
2022-10-13T20:15:51.322Z,100302.22
2022-10-13T20:18:18.059Z,100293.72
2022-10-13T20:20:44.787Z,100300.44
2022-10-13T20:23:12.066Z,100300.28
2022-10-13T20:25:38.838Z,100308.56
2022-10-13T20:28:06.324Z,100295.09
2022-10-13T20:30:33.450Z,100297.22
2022-10-13T20:33:00.300Z,100301.22
2022-10-13T20:35:27.446Z,100301.88
2022-10-13T20:37:54.164Z,100308.72
2022-10-13T20:40:20.885Z,100310.94
2022-10-13T20:42:52.363Z,100308.56
2022-10-13T20:45:19.547Z,100313.34
2022-10-13T20:47:46.965Z,100309.72
2022-10-13T20:50:13.943Z,100307.66
2022-10-13T20:52:40.749Z,100312.16
2022-10-13T20:55:07.773Z,100307.19
2022-10-13T20:57:34.875Z,100307.72
2022-10-13T21:00:01.631Z,100309.44
2022-10-13T21:02:28.244Z,100307.19
2022-10-13T21:04:54.921Z,100305.72
2022-10-13T21:07:21.880Z,100300.78
2022-10-13T21:09:53.667Z,100301.66
2022-10-13T21:12:21.456Z,100298.09
2022-10-13T21:14:48.155Z,100296.47
2022-10-13T21:17:14.771Z,100295.81
2022-10-13T21:19:41.555Z,100291.94
2022-10-13T21:22:08.157Z,100295.09
2022-10-13T21:24:35.111Z,100285.22
2022-10-13T21:27:01.817Z,100279.56
2022-10-13T21:29:28.605Z,100283.81
2022-10-13T21:31:55.296Z,100277.69
2022-10-13T21:34:22.003Z,100275.31
2022-10-13T21:36:48.752Z,100281.47
2022-10-13T21:39:15.958Z,100280.31
2022-10-13T21:41:42.753Z,100276.56
2022-10-13T21:44:13.200Z,100274.66
2022-10-13T21:46:40.392Z,100274.41
2022-10-13T21:49:07.149Z,100287.91
2022-10-13T21:51:38.839Z,100283.03
2022-10-13T21:54:11.906Z,100291.66
2022-10-13T21:56:39.976Z,100291.66
2022-10-13T21:59:07.676Z,100290.59
2022-10-13T22:01:35.120Z,100278.75
2022-10-13T22:04:02.649Z,100270.69
2022-10-13T22:06:32.143Z,100273.28
2022-10-13T22:09:00.633Z,100266.69
2022-10-13T22:11:30.613Z,100269.41
2022-10-13T22:13:58.447Z,100275.13
2022-10-13T22:16:33.848Z,100265.13
2022-10-13T22:19:00.938Z,100269.13
2022-10-13T22:21:30.387Z,100257.34
2022-10-13T22:23:59.844Z,100246.78
2022-10-13T22:26:29.015Z,100250.50
2022-10-13T22:28:58.014Z,100251.59
2022-10-13T22:31:25.179Z,100252.97
2022-10-13T22:33:53.706Z,100243.88
2022-10-13T22:36:24.929Z,100259.69
2022-10-13T22:38:53.586Z,100259.84
2022-10-13T22:41:20.804Z,100260.84
2022-10-13T22:43:55.796Z,100248.69
2022-10-13T22:46:25.274Z,100259.78
2022-10-13T22:48:52.095Z,100253.25
2022-10-13T22:51:21.296Z,100251.78
2022-10-13T22:53:48.865Z,100249.69
2022-10-13T22:56:22.726Z,100232.53
2022-10-13T22:58:51.202Z,100237.34
2022-10-13T23:01:18.974Z,100244.63
2022-10-13T23:03:50.732Z,100245.22
2022-10-13T23:06:20.988Z,100224.84
2022-10-13T23:08:47.974Z,100212.09
2022-10-13T23:11:15.142Z,100241.06
2022-10-13T23:13:41.831Z,100239.44
2022-10-13T23:16:16.564Z,100223.13
2022-10-13T23:18:43.618Z,100228.72
2022-10-13T23:21:17.289Z,100218.63
2022-10-13T23:23:44.624Z,100212.81
2022-10-13T23:26:13.953Z,100208.03
2022-10-13T23:28:41.227Z,100210.00
2022-10-13T23:31:12.129Z,100210.88
2022-10-13T23:33:39.092Z,100203.81
2022-10-13T23:36:06.452Z,100203.38
2022-10-13T23:38:33.932Z,100204.09
2022-10-13T23:41:07.055Z,100208.41
2022-10-13T23:43:33.748Z,100198.28
2022-10-13T23:46:00.951Z,100190.94
2022-10-13T23:48:28.526Z,100190.63
2022-10-13T23:50:55.857Z,100195.09
2022-10-13T23:53:22.765Z,100198.09
2022-10-13T23:55:49.506Z,100200.53
2022-10-13T23:58:16.236Z,100203.91
